TVF7604 LFRS-LFML
Flight info
| Callsign | TVF7604 |
|---|---|
| Flight time | N/A |
| Altitude | 31000 |
| Route | LUGEN UM184 TUPAR DCT DIDRU DCT ADATU DCT LERGA |
| Aircraft | B738/M-SDE2E3FGHIRWXY/LB1 |
Departure
| Time | 2026-05-01 15:13 |
|---|---|
| Airport | Nantes Atlantique Airport (LFRS) |
Arrival
| Time | N/A |
|---|---|
| Airport | Marseille Provence Airport (LFML) |
| Time | Latitude | Longitude | Altitude | Speed | Heading |
|---|---|---|---|---|---|
| 2026-05-01 14:17 | 47.15896 | -1.60261 | 88 ft | 0 kts | 117° |
| 2026-05-01 15:00 | 47.15900 | -1.60262 | 89 ft | 4 kts | 97° |
| 2026-05-01 15:00 | 47.15909 | -1.60295 | 91 ft | 4 kts | 109° |
| 2026-05-01 15:01 | 47.15913 | -1.60332 | 91 ft | 4 kts | 75° |
| 2026-05-01 15:01 | 47.15901 | -1.60360 | 93 ft | 2 kts | 28° |
| 2026-05-01 15:01 | 47.15900 | -1.60361 | 93 ft | 3 kts | 27° |
| 2026-05-01 15:07 | 47.15915 | -1.60349 | 91 ft | 5 kts | 27° |
| 2026-05-01 15:08 | 47.15957 | -1.60317 | 90 ft | 9 kts | 27° |
| 2026-05-01 15:08 | 47.16027 | -1.60264 | 92 ft | 13 kts | 27° |
| 2026-05-01 15:08 | 47.16120 | -1.60193 | 90 ft | 17 kts | 27° |
| 2026-05-01 15:08 | 47.16219 | -1.60118 | 91 ft | 10 kts | 27° |
| 2026-05-01 15:09 | 47.16254 | -1.60091 | 90 ft | 0 kts | 27° |
| 2026-05-01 15:10 | 47.16261 | -1.60086 | 89 ft | 3 kts | 27° |
| 2026-05-01 15:10 | 47.16393 | -1.60077 | 84 ft | 14 kts | 343° |
| 2026-05-01 15:10 | 47.16448 | -1.60185 | 87 ft | 13 kts | 258° |
| 2026-05-01 15:11 | 47.16388 | -1.60257 | 90 ft | 11 kts | 208° |
| 2026-05-01 15:11 | 47.16339 | -1.60295 | 87 ft | 0 kts | 207° |
| 2026-05-01 15:12 | 47.16315 | -1.60313 | 88 ft | 19 kts | 207° |
| 2026-05-01 15:12 | 47.15282 | -1.61102 | 87 ft | 140 kts | 207° |
| 2026-05-01 15:12 | 47.14295 | -1.61853 | 277 ft | 167 kts | 211° |
| 2026-05-01 15:13 | 47.11210 | -1.64210 | 2031 ft | 180 kts | 170° |
| 2026-05-01 15:14 | 47.09283 | -1.61513 | 2780 ft | 215 kts | 110° |
| 2026-05-01 15:14 | 47.08875 | -1.59365 | 3244 ft | 223 kts | 105° |
| 2026-05-01 15:14 | 47.07990 | -1.54672 | 3824 ft | 260 kts | 106° |
| 2026-05-01 15:15 | 47.06929 | -1.49509 | 5158 ft | 267 kts | 117° |
| 2026-05-01 15:15 | 47.04340 | -1.45620 | 6584 ft | 271 kts | 138° |
| 2026-05-01 15:16 | 47.01495 | -1.41950 | 8064 ft | 273 kts | 139° |
| 2026-05-01 15:16 | 46.98625 | -1.38235 | 9543 ft | 278 kts | 139° |
| 2026-05-01 15:17 | 46.95675 | -1.34402 | 10647 ft | 300 kts | 139° |
| 2026-05-01 15:18 | 46.90554 | -1.27751 | 11699 ft | 345 kts | 140° |
| 2026-05-01 15:18 | 46.88752 | -1.25407 | 12386 ft | 349 kts | 140° |
| 2026-05-01 15:19 | 46.83190 | -1.18201 | 14367 ft | 364 kts | 140° |
| 2026-05-01 15:19 | 46.79369 | -1.13252 | 15749 ft | 370 kts | 140° |
| 2026-05-01 15:19 | 46.77435 | -1.10749 | 16433 ft | 374 kts | 140° |
| 2026-05-01 15:20 | 46.73503 | -1.05666 | 17750 ft | 382 kts | 140° |
| 2026-05-01 15:20 | 46.71504 | -1.03085 | 18399 ft | 386 kts | 140° |
| 2026-05-01 15:20 | 46.69484 | -1.00480 | 18969 ft | 389 kts | 140° |
| 2026-05-01 15:21 | 46.67448 | -0.97858 | 19558 ft | 393 kts | 140° |
| 2026-05-01 15:21 | 46.65394 | -0.95214 | 20113 ft | 396 kts | 140° |
| 2026-05-01 15:21 | 46.63323 | -0.92550 | 20686 ft | 399 kts | 140° |
| 2026-05-01 15:21 | 46.61231 | -0.89863 | 21222 ft | 403 kts | 140° |
| 2026-05-01 15:22 | 46.57001 | -0.84428 | 22278 ft | 409 kts | 139° |
| 2026-05-01 15:22 | 46.55088 | -0.81342 | 22839 ft | 414 kts | 127° |
| 2026-05-01 15:22 | 46.53621 | -0.77715 | 23327 ft | 421 kts | 116° |
| 2026-05-01 15:23 | 46.52543 | -0.73734 | 23776 ft | 426 kts | 111° |
| 2026-05-01 15:23 | 46.51525 | -0.69681 | 24202 ft | 429 kts | 111° |
| 2026-05-01 15:23 | 46.50502 | -0.65601 | 24632 ft | 431 kts | 111° |
| 2026-05-01 15:23 | 46.49469 | -0.61503 | 25063 ft | 434 kts | 112° |
| 2026-05-01 15:24 | 46.48421 | -0.57388 | 25464 ft | 436 kts | 112° |
| 2026-05-01 15:24 | 46.47357 | -0.53248 | 25856 ft | 439 kts | 112° |
| 2026-05-01 15:24 | 46.46283 | -0.49092 | 26251 ft | 442 kts | 112° |
| 2026-05-01 15:24 | 46.45197 | -0.44911 | 26640 ft | 444 kts | 112° |
| 2026-05-01 15:25 | 46.44101 | -0.40707 | 27011 ft | 447 kts | 112° |
| 2026-05-01 15:25 | 46.42998 | -0.36488 | 27379 ft | 449 kts | 112° |
| 2026-05-01 15:25 | 46.41901 | -0.32295 | 27737 ft | 452 kts | 112° |
| 2026-05-01 15:25 | 46.40766 | -0.27969 | 28094 ft | 454 kts | 112° |
| 2026-05-01 15:26 | 46.39657 | -0.23745 | 28522 ft | 455 kts | 113° |
| 2026-05-01 15:26 | 46.38533 | -0.19473 | 29056 ft | 453 kts | 113° |
| 2026-05-01 15:26 | 46.37415 | -0.15225 | 29601 ft | 450 kts | 113° |
| 2026-05-01 15:26 | 46.36298 | -0.10993 | 30077 ft | 450 kts | 113° |
| 2026-05-01 15:27 | 46.35180 | -0.06767 | 30498 ft | 449 kts | 113° |
| 2026-05-01 15:27 | 46.34063 | -0.02553 | 30872 ft | 449 kts | 113° |
| 2026-05-01 15:27 | 46.32944 | 0.01665 | 31185 ft | 450 kts | 113° |
| 2026-05-01 15:28 | 46.30673 | 0.10191 | 31183 ft | 454 kts | 113° |
| 2026-05-01 15:28 | 46.28417 | 0.18641 | 31185 ft | 448 kts | 113° |
| 2026-05-01 15:29 | 46.25403 | 0.29876 | 31196 ft | 449 kts | 113° |
| 2026-05-01 15:30 | 46.20873 | 0.46658 | 31187 ft | 450 kts | 113° |
| 2026-05-01 15:31 | 46.14001 | 0.71903 | 31200 ft | 450 kts | 114° |
| 2026-05-01 15:32 | 46.09400 | 0.88656 | 31204 ft | 449 kts | 114° |
| 2026-05-01 15:34 | 46.02478 | 1.13642 | 31220 ft | 447 kts | 114° |